createdAt,value
2018-08-04T00:00:17.570Z,30.43
2018-08-04T00:02:46.827Z,30.44
2018-08-04T00:05:16.039Z,30.43
2018-08-04T00:07:45.276Z,30.43
2018-08-04T00:10:18.527Z,30.42
2018-08-04T00:12:49.446Z,30.41
2018-08-04T00:15:18.874Z,30.41
2018-08-04T00:17:48.861Z,30.42
2018-08-04T00:20:18.278Z,30.40
2018-08-04T00:22:47.882Z,30.39
2018-08-04T00:25:17.058Z,30.38
2018-08-04T00:27:46.270Z,30.35
2018-08-04T00:30:15.846Z,30.35
2018-08-04T00:32:45.045Z,30.34
2018-08-04T00:35:14.274Z,30.33
2018-08-04T00:37:43.454Z,30.32
2018-08-04T00:40:13.483Z,30.32
2018-08-04T00:42:43.130Z,30.30
2018-08-04T00:45:12.294Z,30.30
2018-08-04T00:47:41.479Z,30.30
2018-08-04T00:50:11.124Z,30.29
2018-08-04T00:52:40.278Z,30.24
2018-08-04T00:55:09.531Z,30.27
2018-08-04T00:57:38.666Z,30.28
2018-08-04T01:00:07.901Z,30.27
2018-08-04T01:02:37.088Z,30.26
2018-08-04T01:05:06.382Z,30.25
2018-08-04T01:07:35.538Z,30.24
2018-08-04T01:10:05.614Z,30.23
2018-08-04T01:12:34.886Z,30.23
2018-08-04T01:15:04.127Z,30.23
2018-08-04T01:17:33.319Z,30.22
2018-08-04T01:20:03.745Z,30.21
2018-08-04T01:22:34.035Z,30.21
2018-08-04T01:25:03.302Z,30.20
2018-08-04T01:27:32.563Z,30.20
2018-08-04T01:30:02.063Z,30.20
2018-08-04T01:32:31.248Z,30.19
2018-08-04T01:35:00.439Z,30.19
2018-08-04T01:37:29.843Z,30.19
2018-08-04T01:39:59.061Z,30.17
2018-08-04T01:42:28.260Z,30.16
2018-08-04T01:44:57.443Z,30.16
2018-08-04T01:47:26.611Z,30.15
2018-08-04T01:49:55.834Z,30.15
2018-08-04T01:52:25.010Z,30.15
2018-08-04T01:54:54.210Z,30.14
2018-08-04T01:57:23.391Z,30.14
2018-08-04T01:59:52.569Z,30.14
2018-08-04T02:02:21.861Z,30.12
2018-08-04T02:04:51.032Z,30.11
2018-08-04T02:07:20.448Z,30.12
2018-08-04T02:09:50.035Z,30.11
2018-08-04T02:12:20.249Z,30.11
2018-08-04T02:14:49.436Z,30.10
2018-08-04T02:17:18.691Z,30.09
2018-08-04T02:19:47.934Z,30.08
2018-08-04T02:22:17.147Z,30.09
2018-08-04T02:24:46.324Z,30.08
2018-08-04T02:27:15.522Z,30.07
2018-08-04T02:29:44.702Z,30.07
2018-08-04T02:32:13.889Z,30.07
2018-08-04T02:34:43.196Z,30.05
2018-08-04T02:37:12.418Z,30.05
2018-08-04T02:39:41.602Z,30.05
2018-08-04T02:42:10.884Z,30.05
2018-08-04T02:44:40.027Z,30.03
2018-08-04T02:47:09.235Z,30.03
2018-08-04T02:49:38.417Z,30.03
2018-08-04T02:52:07.632Z,30.03
2018-08-04T02:54:36.886Z,30.02
2018-08-04T02:57:06.114Z,30.01
2018-08-04T02:59:35.295Z,30.01
2018-08-04T03:02:04.607Z,30.00
2018-08-04T03:04:33.822Z,30.01
2018-08-04T03:07:03.006Z,30.00
2018-08-04T03:09:32.196Z,30.00
2018-08-04T03:12:01.399Z,29.99
2018-08-04T03:14:30.625Z,29.99
2018-08-04T03:16:59.787Z,29.98
2018-08-04T03:19:28.991Z,29.98
2018-08-04T03:21:58.184Z,29.96
2018-08-04T03:24:27.401Z,29.98
2018-08-04T03:26:56.580Z,29.95
2018-08-04T03:29:25.796Z,29.95
2018-08-04T03:31:54.991Z,29.95
2018-08-04T03:34:24.166Z,29.95
2018-08-04T03:36:53.396Z,29.93
2018-08-04T03:39:22.590Z,29.93
2018-08-04T03:41:51.770Z,29.92
2018-08-04T03:44:20.978Z,29.94
2018-08-04T03:46:50.253Z,29.92
2018-08-04T03:49:19.446Z,29.91
2018-08-04T03:51:54.858Z,29.90
2018-08-04T03:54:24.079Z,29.92
2018-08-04T03:56:53.296Z,29.89
2018-08-04T03:59:22.483Z,29.89
2018-08-04T04:01:51.710Z,29.88
2018-08-04T04:04:20.903Z,29.88
2018-08-04T04:06:51.106Z,29.88
2018-08-04T04:09:20.274Z,29.87
2018-08-04T04:11:49.490Z,29.87
2018-08-04T04:14:18.690Z,29.85
2018-08-04T04:16:47.903Z,29.85
2018-08-04T04:19:17.098Z,29.85
2018-08-04T04:21:46.315Z,29.84
2018-08-04T04:24:15.499Z,29.85
2018-08-04T04:26:44.695Z,29.84
2018-08-04T04:29:13.874Z,29.83
2018-08-04T04:31:43.118Z,29.82
2018-08-04T04:34:12.306Z,29.81
2018-08-04T04:36:41.494Z,29.80
2018-08-04T04:39:11.535Z,29.81
2018-08-04T04:41:41.222Z,29.80
2018-08-04T04:44:10.398Z,29.79
2018-08-04T04:46:40.657Z,29.78
2018-08-04T04:49:11.154Z,29.78
2018-08-04T04:51:41.185Z,29.77
2018-08-04T04:54:10.676Z,29.76
2018-08-04T04:56:39.886Z,29.76
2018-08-04T04:59:09.094Z,29.75
2018-08-04T05:01:38.399Z,29.76
2018-08-04T05:04:07.627Z,29.76
2018-08-04T05:06:36.863Z,29.75
2018-08-04T05:09:07.627Z,29.73
2018-08-04T05:11:36.806Z,29.74
2018-08-04T05:14:06.187Z,29.73
2018-08-04T05:16:35.397Z,29.72
2018-08-04T05:19:04.684Z,29.71
2018-08-04T05:21:33.916Z,29.71
2018-08-04T05:24:03.219Z,29.72
2018-08-04T05:26:32.497Z,29.70
2018-08-04T05:29:01.702Z,29.70
2018-08-04T05:31:30.882Z,29.71
2018-08-04T05:34:00.079Z,29.69
2018-08-04T05:36:29.257Z,29.69
2018-08-04T05:38:58.458Z,29.70
2018-08-04T05:41:27.775Z,29.69
2018-08-04T05:43:56.998Z,29.67
2018-08-04T05:46:26.195Z,29.68
2018-08-04T05:48:56.869Z,29.68
2018-08-04T05:51:26.077Z,29.69
2018-08-04T05:53:55.314Z,29.69
2018-08-04T05:56:24.610Z,29.69
2018-08-04T05:58:54.218Z,29.70
2018-08-04T06:01:23.490Z,29.70
2018-08-04T06:03:53.120Z,29.70
2018-08-04T06:06:22.309Z,29.70
2018-08-04T06:08:51.489Z,29.70
2018-08-04T06:11:20.715Z,29.69
2018-08-04T06:13:49.897Z,29.70
2018-08-04T06:16:19.073Z,29.70
2018-08-04T06:18:48.589Z,29.71
2018-08-04T06:21:17.806Z,29.71
2018-08-04T06:23:46.983Z,29.71
2018-08-04T06:26:16.195Z,29.71
2018-08-04T06:28:45.390Z,29.71
2018-08-04T06:31:14.634Z,29.71
2018-08-04T06:33:43.823Z,29.71
2018-08-04T06:36:13.044Z,29.71
2018-08-04T06:38:42.265Z,29.70
2018-08-04T06:41:11.754Z,29.71
2018-08-04T06:43:40.946Z,29.70
2018-08-04T06:46:10.200Z,29.69
2018-08-04T06:48:39.383Z,29.70
2018-08-04T06:51:08.647Z,29.68
2018-08-04T06:53:37.875Z,29.69
2018-08-04T06:56:07.222Z,29.69
2018-08-04T06:58:36.399Z,29.69
2018-08-04T07:01:05.678Z,29.69
2018-08-04T07:03:34.899Z,29.68
2018-08-04T07:06:04.220Z,29.68
2018-08-04T07:08:33.426Z,29.69
2018-08-04T07:11:02.617Z,29.69
2018-08-04T07:13:31.807Z,29.69
2018-08-04T07:16:01.090Z,29.68
2018-08-04T07:18:30.295Z,29.69
2018-08-04T07:20:59.511Z,29.69
2018-08-04T07:23:28.728Z,29.69
2018-08-04T07:25:57.985Z,29.69
2018-08-04T07:28:27.210Z,29.70
2018-08-04T07:30:56.526Z,29.70
2018-08-04T07:33:26.165Z,29.71
2018-08-04T07:35:55.416Z,29.71
2018-08-04T07:38:24.603Z,29.71
2018-08-04T07:40:53.819Z,29.71
2018-08-04T07:43:22.998Z,29.72
2018-08-04T07:45:52.238Z,29.74
2018-08-04T07:48:21.454Z,29.74
2018-08-04T07:50:50.626Z,29.74
2018-08-04T07:53:19.835Z,29.76
2018-08-04T07:55:49.002Z,29.76
2018-08-04T07:58:18.190Z,29.77
2018-08-04T08:00:47.383Z,29.79
2018-08-04T08:03:16.588Z,29.79
2018-08-04T08:05:45.790Z,29.80
2018-08-04T08:08:15.039Z,29.83
2018-08-04T08:10:44.272Z,29.83
2018-08-04T08:13:13.446Z,29.83
2018-08-04T08:15:42.638Z,29.84
2018-08-04T08:18:11.830Z,29.85
2018-08-04T08:20:41.051Z,29.86
2018-08-04T08:23:11.249Z,29.88
2018-08-04T08:25:45.584Z,29.88
2018-08-04T08:28:14.779Z,29.89
2018-08-04T08:30:45.041Z,29.91
2018-08-04T08:33:14.242Z,29.92
2018-08-04T08:35:43.464Z,29.94
2018-08-04T08:38:12.638Z,29.94
2018-08-04T08:40:41.878Z,29.96
2018-08-04T08:43:11.066Z,29.98
2018-08-04T08:45:40.291Z,29.98
2018-08-04T08:48:10.573Z,30.01
2018-08-04T08:50:39.878Z,30.01
2018-08-04T08:53:09.113Z,30.02
2018-08-04T08:55:38.343Z,30.04
2018-08-04T08:58:07.655Z,30.05
2018-08-04T09:00:37.015Z,30.06
2018-08-04T09:03:06.472Z,30.07
2018-08-04T09:05:35.722Z,30.09
2018-08-04T09:08:05.204Z,30.10
2018-08-04T09:10:34.403Z,30.10
2018-08-04T09:13:04.124Z,30.13
2018-08-04T09:15:33.349Z,30.13
2018-08-04T09:18:02.671Z,30.15
2018-08-04T09:20:31.919Z,30.16
2018-08-04T09:23:01.156Z,30.19
2018-08-04T09:25:30.306Z,30.20
2018-08-04T09:27:59.499Z,30.21
2018-08-04T09:30:28.750Z,30.23
2018-08-04T09:32:57.971Z,30.25
2018-08-04T09:35:27.149Z,30.26
2018-08-04T09:37:56.450Z,30.27
2018-08-04T09:40:25.670Z,30.30
2018-08-04T09:42:54.899Z,30.31
2018-08-04T09:45:25.111Z,30.31
2018-08-04T09:47:54.319Z,30.33
2018-08-04T09:50:23.490Z,30.36
2018-08-04T09:52:52.684Z,30.37
2018-08-04T09:55:21.995Z,30.39
2018-08-04T09:57:51.215Z,30.40
2018-08-04T10:00:25.702Z,30.42
2018-08-04T10:02:54.974Z,30.45
2018-08-04T10:05:24.169Z,30.45
2018-08-04T10:07:53.413Z,30.47
2018-08-04T10:10:22.628Z,30.49
2018-08-04T10:12:51.856Z,30.51
2018-08-04T10:15:21.041Z,30.53
2018-08-04T10:17:50.270Z,30.55
2018-08-04T10:20:19.550Z,30.57
2018-08-04T10:22:48.790Z,30.58
2018-08-04T10:25:17.990Z,30.59
2018-08-04T10:27:47.232Z,30.61
2018-08-04T10:30:16.488Z,30.63
2018-08-04T10:32:45.818Z,30.65
2018-08-04T10:35:14.971Z,30.66
2018-08-04T10:37:44.186Z,30.68
2018-08-04T10:40:13.407Z,30.70
2018-08-04T10:42:42.726Z,30.72
2018-08-04T10:45:12.014Z,30.74
2018-08-04T10:47:41.298Z,30.74
2018-08-04T10:50:10.638Z,30.76
2018-08-04T10:52:39.919Z,30.78
2018-08-04T10:55:09.138Z,30.80
2018-08-04T10:57:38.358Z,30.82
2018-08-04T11:00:09.021Z,30.84
2018-08-04T11:02:38.314Z,30.84
2018-08-04T11:05:08.032Z,30.86
2018-08-04T11:07:37.259Z,30.88
2018-08-04T11:10:06.855Z,30.90
2018-08-04T11:12:36.156Z,30.91
2018-08-04T11:15:05.390Z,30.93
2018-08-04T11:17:34.582Z,30.94
2018-08-04T11:20:03.923Z,30.95
2018-08-04T11:22:33.114Z,30.98
2018-08-04T11:25:02.342Z,30.99
2018-08-04T11:27:31.534Z,31.00
2018-08-04T11:30:00.734Z,31.03
2018-08-04T11:32:29.919Z,31.04
2018-08-04T11:34:59.110Z,31.06
2018-08-04T11:37:28.318Z,31.08
2018-08-04T11:39:57.502Z,31.09
2018-08-04T11:42:26.813Z,31.09
2018-08-04T11:44:56.011Z,31.12
2018-08-04T11:47:25.226Z,31.13
2018-08-04T11:49:54.478Z,31.15
2018-08-04T11:52:23.701Z,31.15
2018-08-04T11:54:52.946Z,31.17
2018-08-04T11:57:22.170Z,31.18
2018-08-04T11:59:51.373Z,31.18
2018-08-04T12:02:20.575Z,31.20
2018-08-04T12:04:50.041Z,31.22
2018-08-04T12:07:19.299Z,31.22
2018-08-04T12:09:48.504Z,31.24
2018-08-04T12:12:17.707Z,31.28
2018-08-04T12:14:47.021Z,31.29
2018-08-04T12:17:16.196Z,31.27
2018-08-04T12:19:45.389Z,31.29
2018-08-04T12:22:14.577Z,31.31
2018-08-04T12:24:43.781Z,31.30
2018-08-04T12:27:13.358Z,31.34
2018-08-04T12:29:42.600Z,31.34
2018-08-04T12:32:11.759Z,31.30
2018-08-04T12:34:40.987Z,31.35
2018-08-04T12:37:10.130Z,31.36
2018-08-04T12:39:39.384Z,31.38
2018-08-04T12:42:08.558Z,31.39
2018-08-04T12:44:37.920Z,31.40
2018-08-04T12:47:07.174Z,31.32
2018-08-04T12:49:36.397Z,31.42
2018-08-04T12:52:05.586Z,31.43
2018-08-04T12:54:34.864Z,31.44
2018-08-04T12:57:03.986Z,31.45
2018-08-04T12:59:33.272Z,31.46
2018-08-04T13:02:02.435Z,31.48
2018-08-04T13:04:31.670Z,31.48
2018-08-04T13:07:00.848Z,31.49
2018-08-04T13:09:30.004Z,31.48
2018-08-04T13:11:59.286Z,31.48
2018-08-04T13:14:28.458Z,31.48
2018-08-04T13:16:57.647Z,31.49
2018-08-04T13:19:26.807Z,31.48
2018-08-04T13:21:56.072Z,31.44
2018-08-04T13:24:25.208Z,31.49
2018-08-04T13:26:54.394Z,31.49
2018-08-04T13:29:23.813Z,31.49
2018-08-04T13:31:53.000Z,31.50
2018-08-04T13:34:22.194Z,31.50
2018-08-04T13:36:51.415Z,31.50
2018-08-04T13:39:20.595Z,31.50
2018-08-04T13:41:49.804Z,31.46
2018-08-04T13:44:18.995Z,31.50
2018-08-04T13:46:48.206Z,31.51
2018-08-04T13:49:17.499Z,31.47
2018-08-04T13:51:46.709Z,31.51
2018-08-04T13:54:15.934Z,31.50
2018-08-04T13:56:45.210Z,31.50
2018-08-04T13:59:14.387Z,31.52
2018-08-04T14:01:43.574Z,31.52
2018-08-04T14:04:12.801Z,31.52
2018-08-04T14:06:41.991Z,31.51
2018-08-04T14:09:12.018Z,31.50
2018-08-04T14:11:41.194Z,31.52
2018-08-04T14:14:10.391Z,31.46
2018-08-04T14:16:39.582Z,31.52
2018-08-04T14:19:08.734Z,31.52
2018-08-04T14:21:38.019Z,31.52
2018-08-04T14:24:07.210Z,31.53
2018-08-04T14:26:36.406Z,31.53
2018-08-04T14:29:05.630Z,31.53
2018-08-04T14:31:34.902Z,31.54
2018-08-04T14:34:04.202Z,31.54
2018-08-04T14:36:33.405Z,31.54
2018-08-04T14:39:02.583Z,31.53
2018-08-04T14:41:31.799Z,31.53
2018-08-04T14:44:00.939Z,31.54
2018-08-04T14:46:30.109Z,31.53
2018-08-04T14:48:59.270Z,31.55
2018-08-04T14:51:28.595Z,31.49
2018-08-04T14:53:57.758Z,31.53
2018-08-04T14:56:26.998Z,31.53
2018-08-04T14:58:56.461Z,31.53
2018-08-04T15:01:25.672Z,31.52
2018-08-04T15:03:54.850Z,31.54
2018-08-04T15:06:24.019Z,31.53
2018-08-04T15:08:53.203Z,31.54
2018-08-04T15:11:22.538Z,31.54
2018-08-04T15:13:51.785Z,31.54
2018-08-04T15:16:20.964Z,31.54
2018-08-04T15:18:50.139Z,31.55
2018-08-04T15:21:19.293Z,31.55
2018-08-04T15:23:48.646Z,31.54
2018-08-04T15:26:17.844Z,31.53
2018-08-04T15:28:47.105Z,31.53
2018-08-04T15:31:16.282Z,31.55
2018-08-04T15:33:45.511Z,31.54
2018-08-04T15:36:14.673Z,31.54
2018-08-04T15:38:43.863Z,31.54
2018-08-04T15:41:13.042Z,31.55
2018-08-04T15:43:42.222Z,31.54
2018-08-04T15:46:11.410Z,31.54
2018-08-04T15:48:40.650Z,31.54
2018-08-04T15:51:09.914Z,31.54
2018-08-04T15:53:39.101Z,31.55
2018-08-04T15:56:08.410Z,31.54
2018-08-04T15:58:37.734Z,31.55
2018-08-04T16:01:06.954Z,31.54
2018-08-04T16:03:36.175Z,31.54
2018-08-04T16:06:05.330Z,31.53
2018-08-04T16:08:34.507Z,31.52
2018-08-04T16:11:03.662Z,31.51
2018-08-04T16:13:32.850Z,31.51
2018-08-04T16:16:02.090Z,31.51
2018-08-04T16:18:31.259Z,31.51
2018-08-04T16:21:00.445Z,31.51
2018-08-04T16:23:29.638Z,31.50
2018-08-04T16:25:58.898Z,31.50
2018-08-04T16:28:28.142Z,31.50
2018-08-04T16:30:57.330Z,31.49
2018-08-04T16:33:26.513Z,31.49
2018-08-04T16:35:55.669Z,31.49
2018-08-04T16:38:24.876Z,31.47
2018-08-04T16:40:54.058Z,31.41
2018-08-04T16:43:23.235Z,31.43
2018-08-04T16:45:52.396Z,31.48
2018-08-04T16:48:21.561Z,31.47
2018-08-04T16:50:50.750Z,31.47
2018-08-04T16:53:19.965Z,31.46
2018-08-04T16:55:49.142Z,31.45
2018-08-04T16:58:18.321Z,31.45
2018-08-04T17:00:47.515Z,31.45
2018-08-04T17:03:16.742Z,31.45
2018-08-04T17:05:45.945Z,31.44
2018-08-04T17:08:15.114Z,31.44
2018-08-04T17:10:44.311Z,31.45
2018-08-04T17:13:13.474Z,31.44
2018-08-04T17:15:42.715Z,31.44
2018-08-04T17:18:11.920Z,31.43
2018-08-04T17:20:41.171Z,31.42
2018-08-04T17:23:10.338Z,31.42
2018-08-04T17:25:39.573Z,31.42
2018-08-04T17:28:08.926Z,31.41
2018-08-04T17:30:38.118Z,31.43
2018-08-04T17:33:07.355Z,31.41
2018-08-04T17:35:36.607Z,31.41
2018-08-04T17:38:05.961Z,31.41
2018-08-04T17:40:35.183Z,31.40
2018-08-04T17:43:04.334Z,31.35
2018-08-04T17:45:33.564Z,31.38
2018-08-04T17:48:02.762Z,31.38
2018-08-04T17:50:31.995Z,31.37
2018-08-04T17:53:01.226Z,31.36
2018-08-04T17:55:30.411Z,31.37
2018-08-04T17:57:59.574Z,31.32
2018-08-04T18:00:28.810Z,31.36
2018-08-04T18:02:58.043Z,31.37
2018-08-04T18:05:27.335Z,31.37
2018-08-04T18:07:56.509Z,31.36
2018-08-04T18:10:25.739Z,31.35
2018-08-04T18:12:54.922Z,31.34
2018-08-04T18:15:24.106Z,31.35
2018-08-04T18:17:53.274Z,31.33
2018-08-04T18:20:22.492Z,31.31
2018-08-04T18:22:51.756Z,31.31
2018-08-04T18:25:20.934Z,31.22
2018-08-04T18:27:50.306Z,31.28
2018-08-04T18:30:19.493Z,31.27
2018-08-04T18:32:48.659Z,31.27
2018-08-04T18:35:17.981Z,31.26
2018-08-04T18:37:47.180Z,31.25
2018-08-04T18:40:16.427Z,31.25
2018-08-04T18:42:45.637Z,31.23
2018-08-04T18:45:14.835Z,31.24
2018-08-04T18:47:43.997Z,31.23
2018-08-04T18:50:13.162Z,31.21
2018-08-04T18:52:42.325Z,31.16
2018-08-04T18:55:11.480Z,31.20
2018-08-04T18:57:40.782Z,31.20
2018-08-04T19:00:10.001Z,31.19
2018-08-04T19:02:39.190Z,31.18
2018-08-04T19:05:08.446Z,31.19
2018-08-04T19:07:37.618Z,31.19
2018-08-04T19:10:06.799Z,31.17
2018-08-04T19:12:35.979Z,31.15
2018-08-04T19:15:05.146Z,31.15
2018-08-04T19:17:34.326Z,31.15
2018-08-04T19:20:03.552Z,31.13
2018-08-04T19:22:32.702Z,31.12
2018-08-04T19:25:01.850Z,31.12
2018-08-04T19:27:31.158Z,31.13
2018-08-04T19:30:00.314Z,31.11
2018-08-04T19:32:29.490Z,31.11
2018-08-04T19:34:58.625Z,31.10
2018-08-04T19:37:27.826Z,31.09
2018-08-04T19:39:57.845Z,31.08
2018-08-04T19:42:27.118Z,31.08
2018-08-04T19:44:56.371Z,31.07
2018-08-04T19:47:25.522Z,31.07
2018-08-04T19:49:54.978Z,31.07
2018-08-04T19:52:24.099Z,31.05
2018-08-04T19:54:59.917Z,31.00
2018-08-04T19:57:29.093Z,31.02
2018-08-04T19:59:58.291Z,31.03
2018-08-04T20:02:27.441Z,31.00
2018-08-04T20:04:56.591Z,30.97
2018-08-04T20:07:25.773Z,30.98
2018-08-04T20:09:55.017Z,30.98
2018-08-04T20:12:24.167Z,30.98
2018-08-04T20:14:53.477Z,30.97
2018-08-04T20:17:22.562Z,30.97
2018-08-04T20:19:51.717Z,30.96
2018-08-04T20:22:20.861Z,30.96
2018-08-04T20:24:50.026Z,30.95
2018-08-04T20:27:19.206Z,30.95
2018-08-04T20:29:48.378Z,30.94
2018-08-04T20:32:17.598Z,30.94
2018-08-04T20:34:46.776Z,30.92
2018-08-04T20:37:15.953Z,30.92
2018-08-04T20:39:46.147Z,30.91
2018-08-04T20:42:15.322Z,30.90
2018-08-04T20:44:44.574Z,30.90
2018-08-04T20:47:13.647Z,30.89
2018-08-04T20:49:42.845Z,30.88
2018-08-04T20:52:12.046Z,30.88
2018-08-04T20:54:41.206Z,30.89
2018-08-04T20:57:10.383Z,30.86
2018-08-04T20:59:39.608Z,30.85
2018-08-04T21:02:08.753Z,30.85
2018-08-04T21:04:37.954Z,30.83
2018-08-04T21:07:07.548Z,30.81
2018-08-04T21:09:36.714Z,30.83
2018-08-04T21:12:05.933Z,30.82
2018-08-04T21:14:35.132Z,30.82
2018-08-04T21:17:04.317Z,30.81
2018-08-04T21:19:33.508Z,30.80
2018-08-04T21:22:02.694Z,30.80
2018-08-04T21:24:31.862Z,30.81
2018-08-04T21:27:01.026Z,30.80
2018-08-04T21:29:30.169Z,30.81
2018-08-04T21:31:59.334Z,30.77
2018-08-04T21:34:28.529Z,30.78
2018-08-04T21:36:57.709Z,30.77
2018-08-04T21:39:26.846Z,30.76
2018-08-04T21:41:56.023Z,30.75
2018-08-04T21:44:25.271Z,30.74
2018-08-04T21:46:54.436Z,30.73
2018-08-04T21:49:23.570Z,30.72
2018-08-04T21:51:52.697Z,30.71
2018-08-04T21:54:21.952Z,30.71
2018-08-04T21:56:51.114Z,30.71
2018-08-04T21:59:20.270Z,30.70
2018-08-04T22:01:55.655Z,30.67
2018-08-04T22:04:25.035Z,30.66
2018-08-04T22:08:06.694Z,30.63
2018-08-04T22:10:35.937Z,30.62
2018-08-04T22:13:05.295Z,30.60
2018-08-04T22:15:34.367Z,30.60
2018-08-04T22:18:03.622Z,30.60
2018-08-04T22:20:32.856Z,30.59
2018-08-04T22:23:02.106Z,30.58
2018-08-04T22:25:31.325Z,30.58
2018-08-04T22:28:00.550Z,30.58
2018-08-04T22:30:29.686Z,30.57
2018-08-04T22:32:58.893Z,30.57
2018-08-04T22:35:28.055Z,30.55
2018-08-04T22:37:57.234Z,30.55
2018-08-04T22:40:26.414Z,30.54
2018-08-04T22:42:55.623Z,30.50
2018-08-04T22:46:27.938Z,30.53
2018-08-04T22:48:57.095Z,30.49
2018-08-04T22:51:28.697Z,30.48
2018-08-04T22:53:57.921Z,30.48
2018-08-04T22:56:27.122Z,30.47
2018-08-04T22:58:56.298Z,30.46
2018-08-04T23:01:25.446Z,30.46
2018-08-04T23:03:54.658Z,30.40
2018-08-04T23:06:23.818Z,30.40
2018-08-04T23:08:53.128Z,30.43
2018-08-04T23:11:22.339Z,30.42
2018-08-04T23:13:51.561Z,30.43
2018-08-04T23:16:20.718Z,30.41
2018-08-04T23:18:49.902Z,30.40
2018-08-04T23:21:19.150Z,30.39
2018-08-04T23:23:48.306Z,30.39
2018-08-04T23:26:17.481Z,30.37
2018-08-04T23:28:46.652Z,30.37
2018-08-04T23:31:15.790Z,30.36
2018-08-04T23:33:44.956Z,30.35
2018-08-04T23:36:14.152Z,30.34
2018-08-04T23:38:43.298Z,30.33
2018-08-04T23:41:12.587Z,30.33
2018-08-04T23:43:41.738Z,30.31
2018-08-04T23:46:10.906Z,30.30
2018-08-04T23:48:40.074Z,30.29
2018-08-04T23:51:09.268Z,30.28
2018-08-04T23:53:38.505Z,30.27
2018-08-04T23:56:07.697Z,30.26
2018-08-04T23:58:36.923Z,30.26
